Flight Track Log - Related Links

Times and Time Zones

All times are in EDT time to prevent confusion due to time zone crossing. See the DAL222 flight status page for this flight to view local times or setup timezone preferences in your user account.

Time Position Orientation Groundspeed Altitude Reporting Facility
EDT Latitude Longitude Course Direction KTS MPH feet Rate Location/Type
Sun 09:06:00 PM -15.7656 -47.9841 327° Northwest  Level FlightAware Approximate
Sun 09:07:00 PM -15.6664 -48.0544 324° Northwest  Level FlightAware Approximate
Sun 09:08:00 PM -15.5691 -48.1274 324° Northwest  Level FlightAware Approximate
Sun 09:09:00 PM -15.4717 -48.2004 324° Northwest  Level FlightAware Approximate
Sun 09:10:00 PM -15.3742 -48.2730 326° Northwest  Level FlightAware Approximate
Sun 09:11:00 PM -15.2729 -48.3427 326° Northwest  Level FlightAware Approximate
Sun 09:12:00 PM -15.1716 -48.4123 326° Northwest  Level FlightAware Approximate
Sun 09:13:00 PM -15.0716 -48.4838 324° Northwest  Level FlightAware Approximate
Sun 09:13:17 PM -16.0590 -47.8580 324° Northwest 293 337 10,000  Level FlightAware ADS-B
Sun 09:13:32 PM -16.0720 -47.8730 228° Southwest 307 353 10,200 327 Climbing FlightAware ADS-B
Sun 09:14:12 PM -16.1040 -47.9150 232° Southwest 307 353 10,300 1,320 Climbing FlightAware ADS-B
Sun 09:14:22 PM -16.0790 -47.9550 303° West 350 403 11,300 1,636 Climbing FlightAware ADS-B
Sun 09:15:07 PM -16.0820 -48.0380 268° West 357 411 11,800 1,133 Climbing FlightAware ADS-B
Sun 09:15:52 PM -16.0880 -48.1240 266° West 404 465 13,000 1,575 Climbing FlightAware ADS-B
Sun 09:16:27 PM -16.0780 -48.1930 279° West 411 473 13,900 1,650 Climbing FlightAware ADS-B
Sun 09:17:12 PM -16.0380 -48.2720 298° West 416 479 15,200 1,667 Climbing FlightAware ADS-B
Sun 09:17:57 PM -15.9970 -48.3460 300° West 420 483 16,400 1,624 Climbing FlightAware ADS-B
Sun 09:18:37 PM -15.9560 -48.4200 300° West 426 490 17,500 1,694 Climbing FlightAware ADS-B
Sun 09:19:22 PM -15.8920 -48.4840 316° Northwest 425 489 18,800 1,694 Climbing FlightAware ADS-B
Sun 09:20:02 PM -15.8280 -48.5320 324° Northwest 425 489 19,900 1,765 Climbing FlightAware ADS-B
Sun 09:20:47 PM -15.7550 -48.5860 325° Northwest 423 487 21,300 1,624 Climbing FlightAware ADS-B
Sun 09:21:27 PM -15.6920 -48.6330 324° Northwest 425 489 22,200 1,275 Climbing FlightAware ADS-B
Sun 09:22:07 PM -15.6320 -48.6760 325° Northwest 428 493 23,000 1,271 Climbing FlightAware ADS-B
Sun 09:22:52 PM -15.5550 -48.7330 325° Northwest 430 495 24,000 1,140 Climbing FlightAware ADS-B
Sun 09:23:47 PM -15.4700 -48.7960 324° Northwest 435 501 24,900 1,011 Climbing FlightAware ADS-B
Sun 09:24:27 PM -15.3990 -48.8480 325° Northwest 440 506 25,600 1,059 Climbing FlightAware ADS-B
Sun 09:25:12 PM -15.3220 -48.9040 325° Northwest 444 511 26,400 975 Climbing FlightAware ADS-B
Sun 09:25:47 PM -15.2630 -48.9480 324° Northwest 447 514 26,900 923 Climbing FlightAware ADS-B
Sun 09:26:17 PM -15.2110 -48.9870 324° Northwest 450 518 27,400 847 Climbing FlightAware ADS-B
Sun 09:27:12 PM -15.1140 -49.0570 325° Northwest 457 526 28,100 545 Climbing FlightAware ADS-B
Sun 09:28:07 PM -15.0320 -49.1190 324° Northwest 458 527 28,400 947 Climbing FlightAware ADS-B
Sun 09:28:47 PM -14.9530 -49.1760 325° Northwest 458 527 29,600 1,036 Climbing FlightAware ADS-B
Sun 09:29:57 PM -14.8360 -49.2620 325° Northwest 454 522 30,300 382 Climbing FlightAware ADS-B
Sun 09:30:37 PM -14.7780 -49.3050 324° Northwest 454 522 30,300  Level FlightAware ADS-B
Sun 09:31:17 PM -14.7200 -49.3490 324° Northwest 454 522 30,300  Level FlightAware ADS-B
Sun 09:32:07 PM -14.6480 -49.4030 324° Northwest 454 522 30,300  Level FlightAware ADS-B
Sun 09:32:47 PM -14.5900 -49.4460 324° Northwest 454 522 30,300  Level FlightAware ADS-B
Sun 09:33:27 PM -14.5320 -49.4900 324° Northwest 454 522 30,300  Level FlightAware ADS-B
Sun 09:34:07 PM -14.4750 -49.5330 324° Northwest 454 522 30,300  Level FlightAware ADS-B
Sun 09:34:47 PM -14.4170 -49.5770 324° Northwest 454 522 30,300  Level FlightAware ADS-B
Sun 09:35:37 PM -14.3450 -49.6310 324° Northwest 454 522 30,300  Level FlightAware ADS-B
Sun 09:36:17 PM -14.2870 -49.6740 324° Northwest 454 522 30,300  Level FlightAware ADS-B
Sun 09:36:57 PM -14.2290 -49.7170 324° Northwest 454 522 30,300  Level FlightAware ADS-B
Sun 09:37:37 PM -14.1710 -49.7610 324° Northwest 454 522 30,300  Level FlightAware ADS-B
Sun 09:38:27 PM -14.0990 -49.8150 324° Northwest 454 522 30,300  Level FlightAware ADS-B
Sun 09:39:07 PM -14.0410 -49.8580 324° Northwest 454 522 30,300 23 Level FlightAware ADS-B
Sun 09:41:00 PM -13.8524 -49.9883 326° Northwest  Level Estimated
Sun 09:42:00 PM -13.7523 -50.0575 326° Northwest  Level Estimated
Sun 09:43:00 PM -13.6521 -50.1265 326° Northwest  Level Estimated
Sun 09:44:00 PM -13.5519 -50.1956 326° Northwest  Level Estimated
Sun 09:45:00 PM -13.4517 -50.2645 326° Northwest  Level Estimated
Sun 09:46:00 PM -13.3515 -50.3334 326° Northwest  Level Estimated
Sun 09:47:00 PM -13.2513 -50.4022 326° Northwest  Level Estimated
Sun 09:48:00 PM -13.1510 -50.4710 326° Northwest  Level Estimated
Sun 09:49:00 PM -13.0507 -50.5397 326° Northwest  Level Estimated
Sun 09:50:00 PM -12.9504 -50.6084 326° Northwest  Level Estimated
Sun 09:51:00 PM -12.8501 -50.6770 326° Northwest  Level Estimated
Sun 09:52:00 PM -12.7498 -50.7456 326° Northwest  Level Estimated
Sun 09:53:00 PM -12.6494 -50.8141 326° Northwest  Level Estimated
Sun 09:54:00 PM -12.5491 -50.8825 326° Northwest  Level Estimated
Sun 09:55:00 PM -12.4487 -50.9509 326° Northwest  Level Estimated
Sun 09:56:00 PM -12.3483 -51.0193 326° Northwest  Level Estimated
Sun 09:57:00 PM -12.2478 -51.0876 326° Northwest  Level Estimated
Sun 09:58:00 PM -12.1474 -51.1558 326° Northwest  Level Estimated
Sun 09:59:00 PM -12.0470 -51.2240 326° Northwest  Level Estimated
Sun 10:00:00 PM -11.9465 -51.2921 326° Northwest  Level Estimated
Sun 10:01:00 PM -11.8460 -51.3602 326° Northwest  Level Estimated
Sun 10:02:00 PM -11.7455 -51.4283 326° Northwest  Level Estimated
Sun 10:03:00 PM -11.6450 -51.4963 326° Northwest  Level Estimated
Sun 10:04:00 PM -11.5444 -51.5642 326° Northwest  Level Estimated
Sun 10:05:00 PM -11.4439 -51.6321 327° Northwest  Level Estimated
Sun 10:06:00 PM -11.3433 -51.6999 327° Northwest  Level Estimated
Sun 10:07:00 PM -11.2427 -51.7677 327° Northwest  Level Estimated
Sun 10:08:00 PM -11.1421 -51.8354 327° Northwest  Level Estimated
Sun 10:09:00 PM -11.0415 -51.9031 327° Northwest  Level Estimated
Sun 10:10:00 PM -10.9409 -51.9708 327° Northwest  Level Estimated
Sun 10:11:00 PM -10.8403 -52.0384 327° Northwest  Level Estimated
Sun 10:12:00 PM -10.7396 -52.1060 327° Northwest  Level Estimated
Sun 10:13:00 PM -10.6389 -52.1735 327° Northwest  Level Estimated
Sun 10:14:00 PM -10.5382 -52.2410 327° Northwest  Level Estimated
Sun 10:15:00 PM -10.4375 -52.3084 327° Northwest  Level Estimated
Sun 10:16:00 PM -10.3368 -52.3758 327° Northwest  Level Estimated
Sun 10:17:00 PM -10.2361 -52.4431 327° Northwest  Level Estimated
Sun 10:18:00 PM -10.1354 -52.5104 327° Northwest  Level Estimated
Sun 10:19:00 PM -10.0346 -52.5776 327° Northwest  Level Estimated
Sun 10:20:00 PM -9.9338 -52.6449 327° Northwest  Level Estimated
Sun 10:21:00 PM -9.8330 -52.7120 327° Northwest  Level Estimated
Sun 10:22:00 PM -9.7322 -52.7792 327° Northwest  Level Estimated
Sun 10:23:00 PM -9.6314 -52.8462 327° Northwest  Level Estimated
Sun 10:24:00 PM -9.5306 -52.9133 327° Northwest  Level Estimated
Sun 10:25:00 PM -9.4298 -52.9803 327° Northwest  Level Estimated
Sun 10:26:00 PM -9.3289 -53.0473 327° Northwest  Level Estimated
Sun 10:27:00 PM -9.2281 -53.1142 327° Northwest  Level Estimated
Sun 10:28:00 PM -9.1272 -53.1811 327° Northwest  Level Estimated
Sun 10:29:00 PM -9.0263 -53.2480 327° Northwest  Level Estimated
Sun 10:30:00 PM -8.9254 -53.3148 327° Northwest  Level Estimated
Sun 10:31:00 PM -8.8245 -53.3816 327° Northwest  Level Estimated
Sun 10:32:00 PM -8.7236 -53.4483 327° Northwest  Level Estimated
Sun 10:33:00 PM -8.6227 -53.5150 327° Northwest  Level Estimated
Sun 10:34:00 PM -8.5217 -53.5817 327° Northwest  Level Estimated
Sun 10:35:00 PM -8.4208 -53.6483 327° Northwest  Level Estimated
Sun 10:36:00 PM -8.3198 -53.7149 327° Northwest  Level Estimated
Sun 10:37:00 PM -8.2188 -53.7815 327° Northwest  Level Estimated
Sun 10:38:00 PM -8.1178 -53.8480 327° Northwest  Level Estimated
Sun 10:39:00 PM -8.0168 -53.9145 327° Northwest  Level Estimated
Sun 10:40:00 PM -7.9158 -53.9810 327° Northwest  Level Estimated
Sun 10:41:00 PM -7.8148 -54.0475 327° Northwest  Level Estimated
Sun 10:42:00 PM -7.7138 -54.1138 327° Northwest  Level Estimated
Sun 10:43:00 PM -7.6127 -54.1802 327° Northwest  Level Estimated
Sun 10:44:00 PM -7.5117 -54.2466 327° Northwest  Level Estimated
Sun 10:45:00 PM -7.4106 -54.3129 327° Northwest  Level Estimated
Sun 10:46:00 PM -7.3095 -54.3792 327° Northwest  Level Estimated
Sun 10:47:00 PM -7.2085 -54.4454 327° Northwest  Level Estimated
Sun 10:48:00 PM -7.1074 -54.5116 327° Northwest  Level Estimated
Sun 10:49:00 PM -7.0063 -54.5778 327° Northwest  Level Estimated
Sun 10:50:00 PM -6.9050 -54.6441 327° Northwest  Level Estimated
Sun 10:51:00 PM -6.8036 -54.7104 327° Northwest  Level Estimated
Sun 10:52:00 PM -6.7023 -54.7766 327° Northwest  Level Estimated
Sun 10:53:00 PM -6.6010 -54.8428 327° Northwest  Level Estimated
Sun 10:54:00 PM -6.4996 -54.9090 327° Northwest  Level Estimated
Sun 10:55:00 PM -6.3983 -54.9752 327° Northwest  Level Estimated
Sun 10:56:00 PM -6.2969 -55.0413 327° Northwest  Level Estimated
Sun 10:57:00 PM -6.1955 -55.1074 327° Northwest  Level Estimated
Sun 10:58:00 PM -6.0942 -55.1735 327° Northwest  Level Estimated
Sun 10:59:00 PM -5.9928 -55.2395 327° Northwest  Level Estimated
Sun 11:00:00 PM -5.8914 -55.3055 327° Northwest  Level Estimated
Sun 11:01:00 PM -5.7900 -55.3715 327° Northwest  Level Estimated
Sun 11:02:00 PM -5.6886 -55.4375 327° Northwest  Level Estimated
Sun 11:03:00 PM -5.5872 -55.5035 327° Northwest  Level Estimated
Sun 11:04:00 PM -5.4857 -55.5694 327° Northwest  Level Estimated
Sun 11:05:00 PM -5.3843 -55.6353 327° Northwest  Level Estimated
Sun 11:06:00 PM -5.2829 -55.7012 327° Northwest  Level Estimated
Sun 11:07:00 PM -5.1814 -55.7671 327° Northwest  Level Estimated
Sun 11:08:00 PM -5.0800 -55.8329 327° Northwest  Level Estimated
Sun 11:09:00 PM -4.9785 -55.8988 327° Northwest  Level Estimated
Sun 11:10:00 PM -4.8770 -55.9646 327° Northwest  Level Estimated
Sun 11:11:00 PM -4.7756 -56.0304 327° Northwest  Level Estimated
Sun 11:12:00 PM -4.6741 -56.0961 327° Northwest  Level Estimated
Sun 11:13:00 PM -4.5726 -56.1619 327° Northwest  Level Estimated
Sun 11:14:00 PM -4.4711 -56.2276 327° Northwest  Level Estimated
Sun 11:15:00 PM -4.3696 -56.2933 327° Northwest  Level Estimated
Sun 11:16:00 PM -4.2681 -56.3590 327° Northwest  Level Estimated
Sun 11:17:00 PM -4.1666 -56.4247 327° Northwest  Level Estimated
Sun 11:18:00 PM -4.0651 -56.4903 327° Northwest  Level Estimated
Sun 11:19:00 PM -3.9636 -56.5560 327° Northwest  Level Estimated
Sun 11:20:00 PM -3.8621 -56.6216 327° Northwest  Level Estimated
Sun 11:21:00 PM -3.7605 -56.6872 327° Northwest  Level Estimated
Sun 11:22:00 PM -3.6590 -56.7528 327° Northwest  Level Estimated
Sun 11:23:00 PM -3.5575 -56.8184 327° Northwest  Level Estimated
Sun 11:24:00 PM -3.4559 -56.8840 327° Northwest  Level Estimated
Sun 11:25:00 PM -3.3544 -56.9495 327° Northwest  Level Estimated
Sun 11:26:00 PM -3.2528 -57.0151 327° Northwest  Level Estimated
Sun 11:27:00 PM -3.1513 -57.0806 327° Northwest  Level Estimated
Sun 11:28:00 PM -3.0497 -57.1461 327° Northwest  Level Estimated
Sun 11:29:00 PM -2.9481 -57.2116 327° Northwest  Level Estimated
Sun 11:30:00 PM -2.8466 -57.2771 327° Northwest  Level Estimated
Sun 11:31:00 PM -2.7450 -57.3426 327° Northwest  Level Estimated
Sun 11:32:00 PM -2.6434 -57.4081 327° Northwest  Level Estimated
Sun 11:33:00 PM -2.5419 -57.4735 327° Northwest  Level Estimated
Sun 11:34:00 PM -2.4403 -57.5389 327° Northwest  Level Estimated
Sun 11:35:00 PM -2.3387 -57.6044 327° Northwest  Level Estimated
Sun 11:36:00 PM -2.2371 -57.6698 327° Northwest  Level Estimated
Sun 11:37:00 PM -2.1355 -57.7352 327° Northwest  Level Estimated
Sun 11:38:00 PM -2.0339 -57.8006 327° Northwest  Level Estimated
Sun 11:39:00 PM -1.9323 -57.8660 327° Northwest  Level Estimated
Sun 11:40:00 PM -1.8307 -57.9314 327° Northwest  Level Estimated
Sun 11:41:00 PM -1.7291 -57.9968 327° Northwest  Level Estimated
Sun 11:42:00 PM -1.6275 -58.0622 327° Northwest  Level Estimated
Sun 11:43:00 PM -1.5259 -58.1275 327° Northwest  Level Estimated
Sun 11:44:00 PM -1.4243 -58.1929 327° Northwest  Level Estimated
Sun 11:45:00 PM -1.3227 -58.2583 327° Northwest  Level Estimated
Sun 11:46:00 PM -1.2211 -58.3236 327° Northwest  Level Estimated
Sun 11:47:00 PM -1.1195 -58.3890 327° Northwest  Level Estimated
Sun 11:48:00 PM -1.0179 -58.4543 327° Northwest  Level Estimated
Sun 11:49:00 PM -0.9162 -58.5196 327° Northwest  Level Estimated
Sun 11:50:00 PM -0.8146 -58.5850 327° Northwest  Level Estimated
Sun 11:51:00 PM -0.7130 -58.6503 327° Northwest  Level Estimated
Sun 11:52:00 PM -0.6114 -58.7156 327° Northwest  Level Estimated
Sun 11:53:00 PM -0.5098 -58.7810 327° Northwest  Level Estimated
Sun 11:54:00 PM -0.4081 -58.8463 327° Northwest  Level Estimated
Sun 11:55:00 PM -0.3065 -58.9116 327° Northwest  Level Estimated
Sun 11:56:00 PM -0.2049 -58.9770 327° Northwest  Level Estimated
Sun 11:57:00 PM -0.1035 -59.0421 327° Northwest  Level Estimated
Sun 11:58:00 PM -0.0021 -59.1073 327° Northwest  Level Estimated
Sun 11:59:00 PM 0.0994 -59.1725 327° Northwest  Level Estimated
Mon 12:00:00 AM 0.2008 -59.2377 327° Northwest  Level Estimated
Mon 12:01:00 AM 0.3022 -59.3029 327° Northwest  Level Estimated
Mon 12:02:00 AM 0.4036 -59.3681 327° Northwest  Level Estimated
Mon 12:03:00 AM 0.5050 -59.4333 327° Northwest  Level Estimated
Mon 12:04:00 AM 0.6065 -59.4985 327° Northwest  Level Estimated
Mon 12:05:00 AM 0.7079 -59.5637 327° Northwest  Level Estimated
Mon 12:06:00 AM 0.8093 -59.6289 327° Northwest  Level Estimated
Mon 12:07:00 AM 0.9107 -59.6941 327° Northwest  Level Estimated
Mon 12:08:00 AM 1.0121 -59.7593 327° Northwest  Level Estimated
Mon 12:09:00 AM 1.1135 -59.8245 327° Northwest  Level Estimated
Mon 12:10:00 AM 1.2149 -59.8897 327° Northwest  Level Estimated
Mon 12:11:00 AM 1.3164 -59.9550 327° Northwest  Level Estimated
Mon 12:12:00 AM 1.4178 -60.0202 327° Northwest  Level Estimated
Mon 12:13:00 AM 1.5192 -60.0854 327° Northwest  Level Estimated
Mon 12:14:00 AM 1.6206 -60.1507 327° Northwest  Level Estimated
Mon 12:15:00 AM 1.7220 -60.2159 327° Northwest  Level Estimated
Mon 12:16:00 AM 1.8234 -60.2812 327° Northwest  Level Estimated
Mon 12:17:00 AM 1.9248 -60.3464 327° Northwest  Level Estimated
Mon 12:18:00 AM 2.0262 -60.4117 327° Northwest  Level Estimated
Mon 12:19:00 AM 2.1276 -60.4770 327° Northwest  Level Estimated
Mon 12:20:00 AM 2.2290 -60.5423 327° Northwest  Level Estimated
Mon 12:21:00 AM 2.3304 -60.6076 327° Northwest  Level Estimated
Mon 12:22:00 AM 2.4317 -60.6729 327° Northwest  Level Estimated
Mon 12:23:00 AM 2.5331 -60.7382 327° Northwest  Level Estimated
Mon 12:24:00 AM 2.6345 -60.8035 327° Northwest  Level Estimated
Mon 12:25:00 AM 2.7359 -60.8688 327° Northwest  Level Estimated
Mon 12:26:00 AM 2.8372 -60.9342 327° Northwest  Level Estimated
Mon 12:27:00 AM 2.9386 -60.9995 327° Northwest  Level Estimated
Mon 12:28:00 AM 3.0400 -61.0649 327° Northwest  Level Estimated
Mon 12:29:00 AM 3.1413 -61.1303 327° Northwest  Level Estimated
Mon 12:30:00 AM 3.2427 -61.1957 327° Northwest  Level Estimated
Mon 12:31:00 AM 3.3440 -61.2611 327° Northwest  Level Estimated
Mon 12:32:00 AM 3.4454 -61.3265 327° Northwest  Level Estimated
Mon 12:33:00 AM 3.5467 -61.3920 327° Northwest  Level Estimated
Mon 12:34:00 AM 3.6481 -61.4574 327° Northwest  Level Estimated
Mon 12:35:00 AM 3.7494 -61.5229 327° Northwest  Level Estimated
Mon 12:36:00 AM 3.8507 -61.5883 327° Northwest  Level Estimated
Mon 12:37:00 AM 3.9520 -61.6539 327° Northwest  Level Estimated
Mon 12:38:00 AM 4.0534 -61.7194 327° Northwest  Level Estimated
Mon 12:39:00 AM 4.1547 -61.7849 327° Northwest  Level Estimated
Mon 12:40:00 AM 4.2560 -61.8504 327° Northwest  Level Estimated
Mon 12:41:00 AM 4.3573 -61.9160 327° Northwest  Level Estimated
Mon 12:42:00 AM 4.4586 -61.9816 327° Northwest  Level Estimated
Mon 12:43:00 AM 4.5599 -62.0472 327° Northwest  Level Estimated
Mon 12:44:00 AM 4.6612 -62.1128 327° Northwest  Level Estimated
Mon 12:45:00 AM 4.7624 -62.1784 327° Northwest  Level Estimated
Mon 12:46:00 AM 4.8637 -62.2441 327° Northwest  Level Estimated
Mon 12:47:00 AM 4.9650 -62.3097 327° Northwest  Level Estimated
Mon 12:48:00 AM 5.0662 -62.3754 327° Northwest  Level Estimated
Mon 12:49:00 AM 5.1675 -62.4412 327° Northwest  Level Estimated
Mon 12:50:00 AM 5.2687 -62.5069 327° Northwest  Level Estimated
Mon 12:51:00 AM 5.3700 -62.5727 327° Northwest  Level Estimated
Mon 12:52:00 AM 5.4712 -62.6384 327° Northwest  Level Estimated
Mon 12:53:00 AM 5.5724 -62.7042 327° Northwest  Level Estimated
Mon 12:54:00 AM 5.6736 -62.7701 327° Northwest  Level Estimated
Mon 12:55:00 AM 5.7749 -62.8359 327° Northwest  Level Estimated
Mon 12:56:00 AM 5.8761 -62.9018 327° Northwest  Level Estimated
Mon 12:57:00 AM 5.9773 -62.9677 327° Northwest  Level Estimated
Mon 12:58:00 AM 6.0784 -63.0336 327° Northwest  Level Estimated
Mon 12:59:00 AM 6.1796 -63.0995 327° Northwest  Level Estimated
Mon 01:00:00 AM 6.2808 -63.1655 327° Northwest  Level Estimated
Mon 01:01:00 AM 6.3819 -63.2315 327° Northwest  Level Estimated
Mon 01:02:00 AM 6.4831 -63.2975 327° Northwest  Level Estimated
Mon 01:03:00 AM 6.5842 -63.3635 327° Northwest  Level Estimated
Mon 01:04:00 AM 6.6854 -63.4296 327° Northwest  Level Estimated
Mon 01:05:00 AM 6.7865 -63.4957 327° Northwest  Level Estimated
Mon 01:06:00 AM 6.8876 -63.5619 327° Northwest  Level Estimated
Mon 01:07:00 AM 6.9887 -63.6280 327° Northwest  Level Estimated
Mon 01:08:00 AM 7.0898 -63.6942 327° Northwest  Level Estimated
Mon 01:09:00 AM 7.1909 -63.7604 327° Northwest  Level Estimated
Mon 01:10:00 AM 7.2920 -63.8267 327° Northwest  Level Estimated
Mon 01:11:00 AM 7.3931 -63.8929 327° Northwest  Level Estimated
Mon 01:12:00 AM 7.4942 -63.9592 327° Northwest  Level Estimated
Mon 01:13:00 AM 7.5952 -64.0256 327° Northwest  Level Estimated
Mon 01:14:00 AM 7.6962 -64.0919 327° Northwest  Level Estimated
Mon 01:15:00 AM 7.7973 -64.1583 327° Northwest  Level Estimated
Mon 01:16:00 AM 7.8983 -64.2248 327° Northwest  Level Estimated
Mon 01:17:00 AM 7.9993 -64.2912 327° Northwest  Level Estimated
Mon 01:18:00 AM 8.1003 -64.3577 327° Northwest  Level Estimated
Mon 01:19:00 AM 8.2013 -64.4243 327° Northwest  Level Estimated
Mon 01:20:00 AM 8.3023 -64.4908 327° Northwest  Level Estimated
Mon 01:21:00 AM 8.4032 -64.5574 327° Northwest  Level Estimated
Mon 01:22:00 AM 8.5042 -64.6240 327° Northwest  Level Estimated
Mon 01:23:00 AM 8.6052 -64.6907 327° Northwest  Level Estimated
Mon 01:24:00 AM 8.7061 -64.7574 327° Northwest  Level Estimated
Mon 01:25:00 AM 8.8070 -64.8242 327° Northwest  Level Estimated
Mon 01:26:00 AM 8.9079 -64.8909 327° Northwest  Level Estimated
Mon 01:27:00 AM 9.0088 -64.9577 327° Northwest  Level Estimated
Mon 01:28:00 AM 9.1097 -65.0246 327° Northwest  Level Estimated
Mon 01:29:00 AM 9.2106 -65.0915 327° Northwest  Level Estimated
Mon 01:30:00 AM 9.3114 -65.1584 327° Northwest  Level Estimated
Mon 01:31:00 AM 9.4123 -65.2254 327° Northwest  Level Estimated
Mon 01:32:00 AM 9.5131 -65.2924 327° Northwest  Level Estimated
Mon 01:33:00 AM 9.6139 -65.3594 327° Northwest  Level Estimated
Mon 01:34:00 AM 9.7148 -65.4265 327° Northwest  Level Estimated
Mon 01:35:00 AM 9.8155 -65.4936 327° Northwest  Level Estimated
Mon 01:36:00 AM 9.9163 -65.5608 327° Northwest  Level Estimated
Mon 01:37:00 AM 10.0171 -65.6280 327° Northwest  Level Estimated
Mon 01:38:00 AM 10.1179 -65.6952 327° Northwest  Level Estimated
Mon 01:39:00 AM 10.2186 -65.7625 327° Northwest  Level Estimated
Mon 01:40:00 AM 10.3193 -65.8299 327° Northwest  Level Estimated
Mon 01:41:00 AM 10.4201 -65.8972 327° Northwest  Level Estimated
Mon 01:42:00 AM 10.5208 -65.9647 327° Northwest  Level Estimated
Mon 01:43:00 AM 10.6215 -66.0321 327° Northwest  Level Estimated
Mon 01:44:00 AM 10.7221 -66.0996 327° Northwest  Level Estimated
Mon 01:45:00 AM 10.8228 -66.1672 327° Northwest  Level Estimated
Mon 01:46:00 AM 10.9234 -66.2348 327° Northwest  Level Estimated
Mon 01:47:00 AM 11.0240 -66.3024 327° Northwest  Level Estimated
Mon 01:48:00 AM 11.1247 -66.3701 327° Northwest  Level Estimated
Mon 01:49:00 AM 11.2253 -66.4379 327° Northwest  Level Estimated
Mon 01:50:00 AM 11.3258 -66.5056 327° Northwest  Level Estimated
Mon 01:51:00 AM 11.4264 -66.5735 327° Northwest  Level Estimated
Mon 01:52:00 AM 11.5270 -66.6413 327° Northwest  Level Estimated
Mon 01:53:00 AM 11.6275 -66.7093 327° Northwest  Level Estimated
Mon 01:54:00 AM 11.7280 -66.7773 326° Northwest  Level Estimated
Mon 01:55:00 AM 11.8285 -66.8453 326° Northwest  Level Estimated
Mon 01:56:00 AM 11.9290 -66.9134 326° Northwest  Level Estimated
Mon 01:57:00 AM 12.0295 -66.9815 326° Northwest  Level Estimated
Mon 01:58:00 AM 12.1300 -67.0497 326° Northwest  Level Estimated
Mon 01:59:00 AM 12.2304 -67.1179 326° Northwest  Level Estimated
Mon 02:00:00 AM 12.3308 -67.1862 326° Northwest  Level Estimated
Mon 02:01:00 AM 12.4312 -67.2545 326° Northwest  Level Estimated
Mon 02:02:00 AM 12.5316 -67.3229 326° Northwest  Level Estimated
Mon 02:03:00 AM 12.6320 -67.3913 326° Northwest  Level Estimated
Mon 02:04:00 AM 12.7323 -67.4598 326° Northwest  Level Estimated
Mon 02:05:00 AM 12.8327 -67.5284 326° Northwest  Level Estimated
Mon 02:06:00 AM 12.9330 -67.5970 326° Northwest  Level Estimated
Mon 02:07:00 AM 13.0333 -67.6656 326° Northwest  Level Estimated
Mon 02:08:00 AM 13.1336 -67.7344 326° Northwest  Level Estimated
Mon 02:09:00 AM 13.2338 -67.8031 326° Northwest  Level Estimated
Mon 02:10:00 AM 13.3341 -67.8719 326° Northwest  Level Estimated
Mon 02:11:00 AM 13.4343 -67.9408 326° Northwest  Level Estimated
Mon 02:12:00 AM 13.5345 -68.0098 326° Northwest  Level Estimated
Mon 02:13:00 AM 13.6347 -68.0788 326° Northwest  Level Estimated
Mon 02:14:00 AM 13.7349 -68.1478 326° Northwest  Level Estimated
Mon 02:15:00 AM 13.8350 -68.2169 326° Northwest  Level Estimated
Mon 02:16:00 AM 13.9352 -68.2861 326° Northwest  Level Estimated
Mon 02:17:00 AM 14.0353 -68.3554 326° Northwest  Level Estimated
Mon 02:18:00 AM 14.1354 -68.4247 326° Northwest  Level Estimated
Mon 02:19:00 AM 14.2354 -68.4940 326° Northwest  Level Estimated
Mon 02:20:00 AM 14.3355 -68.5635 326° Northwest  Level Estimated
Mon 02:21:00 AM 14.4355 -68.6329 326° Northwest  Level Estimated
Mon 02:22:00 AM 14.5355 -68.7025 326° Northwest  Level Estimated
Mon 02:23:00 AM 14.6355 -68.7721 326° Northwest  Level Estimated
Mon 02:24:00 AM 14.7355 -68.8418 326° Northwest  Level Estimated
Mon 02:25:00 AM 14.8354 -68.9115 326° Northwest  Level Estimated
Mon 02:26:00 AM 14.9354 -68.9813 326° Northwest  Level Estimated
Mon 02:27:00 AM 15.0353 -69.0511 326° Northwest  Level Estimated
Mon 02:28:00 AM 15.1352 -69.1211 326° Northwest  Level Estimated
Mon 02:29:00 AM 15.2350 -69.1911 326° Northwest  Level Estimated
Mon 02:30:00 AM 15.3349 -69.2611 326° Northwest  Level Estimated
Mon 02:31:00 AM 15.4347 -69.3313 326° Northwest  Level Estimated
Mon 02:32:00 AM 15.5345 -69.4015 326° Northwest  Level Estimated
Mon 02:33:00 AM 15.6343 -69.4717 326° Northwest  Level Estimated
Mon 02:34:00 AM 15.7340 -69.5420 326° Northwest  Level Estimated
Mon 02:35:00 AM 15.8338 -69.6124 326° Northwest  Level Estimated
Mon 02:36:00 AM 15.9335 -69.6829 326° Northwest  Level Estimated
Mon 02:37:00 AM 16.0332 -69.7534 326° Northwest  Level Estimated
Mon 02:38:00 AM 16.1328 -69.8241 326° Northwest  Level Estimated
Mon 02:39:00 AM 16.2325 -69.8947 326° Northwest  Level Estimated
Mon 02:40:00 AM 16.3321 -69.9655 326° Northwest  Level Estimated
Mon 02:41:00 AM 16.4317 -70.0363 326° Northwest  Level Estimated
Mon 02:42:00 AM 16.5312 -70.1072 326° Northwest  Level Estimated
Mon 02:43:00 AM 16.6308 -70.1782 326° Northwest  Level Estimated
Mon 02:44:00 AM 16.7303 -70.2492 326° Northwest  Level Estimated
Mon 02:45:00 AM 16.8298 -70.3204 326° Northwest  Level Estimated
Mon 02:46:00 AM 16.9293 -70.3915 326° Northwest  Level Estimated
Mon 02:47:00 AM 17.0287 -70.4628 326° Northwest  Level Estimated
Mon 02:48:00 AM 17.1282 -70.5342 326° Northwest  Level Estimated
Mon 02:49:00 AM 17.2276 -70.6056 326° Northwest  Level Estimated
Mon 02:50:00 AM 17.3269 -70.6771 326° Northwest  Level Estimated
Mon 02:51:00 AM 17.4263 -70.7487 325° Northwest  Level Estimated
Mon 02:52:00 AM 17.5256 -70.8203 325° Northwest  Level Estimated
Mon 02:53:00 AM 17.6249 -70.8921 325° Northwest  Level Estimated
Mon 02:54:00 AM 17.7242 -70.9639 325° Northwest  Level Estimated
Mon 02:55:00 AM 17.8234 -71.0358 325° Northwest  Level Estimated
Mon 02:56:00 AM 17.9226 -71.1077 325° Northwest  Level Estimated
Mon 02:57:00 AM 18.0218 -71.1798 325° Northwest  Level Estimated
Mon 02:58:00 AM 18.1210 -71.2519 325° Northwest  Level Estimated
Mon 02:59:00 AM 18.2201 -71.3241 325° Northwest  Level Estimated
Mon 03:00:00 AM 18.3192 -71.3964 325° Northwest  Level Estimated
Mon 03:01:00 AM 18.4183 -71.4688 325° Northwest  Level Estimated
Mon 03:02:00 AM 18.5174 -71.5413 325° Northwest  Level Estimated
Mon 03:03:00 AM 18.6164 -71.6138 325° Northwest  Level Estimated
Mon 03:04:00 AM 18.7154 -71.6864 325° Northwest  Level Estimated
Mon 03:05:00 AM 18.8144 -71.7591 325° Northwest  Level Estimated
Mon 03:06:00 AM 18.9133 -71.8319 325° Northwest  Level Estimated
Mon 03:07:00 AM 19.0122 -71.9048 325° Northwest  Level Estimated
Mon 03:08:00 AM 19.1111 -71.9778 325° Northwest  Level Estimated
Mon 03:09:00 AM 19.2100 -72.0509 325° Northwest  Level Estimated
Mon 03:09:39 AM 20.6722 -73.5172 325° Northwest 479 551 38,000  Level Miami Center
Mon 03:10:00 AM 19.3088 -72.1240 325° Northwest  Level Estimated
Mon 03:10:40 AM 20.7636 -73.5881 324° Northwest 442 509 38,000  Level Miami Center
Mon 03:11:00 AM 19.4076 -72.1973 325° Northwest  Level Estimated
Mon 03:11:39 AM 20.8525 -73.6528 326° Northwest 420 483 38,000  Level Miami Center
Mon 03:12:00 AM 19.5064 -72.2706 325° Northwest  Level Estimated
Mon 03:12:39 AM 20.9458 -73.7217 325° Northwest 420 483 38,000  Level Miami Center
Mon 03:13:00 AM 19.6051 -72.3440 325° Northwest  Level Estimated
Mon 03:13:39 AM 21.0456 -73.7969 325° Northwest 420 483 38,000  Level Miami Center
Mon 03:14:00 AM 19.7038 -72.4175 325° Northwest  Level Estimated
Mon 03:14:39 AM 21.1386 -73.8683 324° Northwest 426 490 38,000  Level Miami Center
Mon 03:15:39 AM 21.2361 -73.9397 326° Northwest 426 490 38,000  Level Miami Center
Mon 03:16:39 AM 21.3314 -74.0111 325° Northwest 421 484 38,000  Level Miami Center
Mon 03:17:39 AM 21.4267 -74.0850 324° Northwest 416 479 38,000  Level Miami Center
Mon 03:18:39 AM 21.5197 -74.1589 324° Northwest 416 479 38,000  Level Miami Center
Mon 03:19:39 AM 21.6192 -74.2328 325° Northwest 421 484 38,000  Level Miami Center
Mon 03:20:42 AM 21.7144 -74.3047 325° Northwest 421 484 38,000  Level Miami Center
Mon 03:21:40 AM 21.8139 -74.3878 322° Northwest 416 479 38,000  Level Miami Center
Mon 03:22:39 AM 21.9092 -74.4619 324° Northwest 416 479 38,000  Level Miami Center
Mon 03:23:39 AM 22.0061 -74.5319 326° Northwest 416 479 38,000  Level Miami Center
Mon 03:24:42 AM 22.1014 -74.6064 324° Northwest 416 479 38,000  Level Miami Center
Mon 03:25:42 AM 22.1986 -74.6789 325° Northwest 421 484 38,000  Level Miami Center
Mon 03:26:39 AM 22.2936 -74.7536 324° Northwest 421 484 38,000  Level Miami Center
Mon 03:27:41 AM 22.3886 -74.8261 325° Northwest 421 484 38,000  Level Miami Center
Mon 03:28:41 AM 22.4814 -74.8989 324° Northwest 416 479 38,000  Level Miami Center
Mon 03:29:39 AM 22.5764 -74.9717 325° Northwest 416 479 38,000  Level Miami Center
Mon 03:30:42 AM 22.6711 -75.0444 325° Northwest 416 479 38,000  Level Miami Center
Mon 03:31:41 AM 22.7639 -75.1175 324° Northwest 416 479 38,000  Level Miami Center
Mon 03:32:41 AM 22.8589 -75.1906 325° Northwest 416 479 38,000  Level Miami Center
Mon 03:33:39 AM 22.9536 -75.2639 325° Northwest 416 479 38,000  Level Miami Center
Mon 03:34:39 AM 23.0464 -75.3350 325° Northwest 416 479 38,000  Level Miami Center
Mon 03:35:42 AM 23.1411 -75.4083 325° Northwest 416 479 38,000  Level Miami Center
Mon 03:36:39 AM 23.2358 -75.4819 324° Northwest 416 479 38,000  Level Miami Center
Mon 03:37:39 AM 23.3283 -75.5556 324° Northwest 416 479 38,000  Level Miami Center
Mon 03:38:39 AM 23.4272 -75.6317 325° Northwest 416 479 38,000  Level Miami Center
Mon 03:39:39 AM 23.5239 -75.7056 325° Northwest 423 487 38,000  Level Miami Center
Mon 03:40:39 AM 23.6250 -75.7839 325° Northwest 429 494 38,000  Level Miami Center
Mon 03:41:39 AM 23.7153 -75.8603 322° Northwest 429 494 38,000  Level Miami Center
Mon 03:42:39 AM 23.8097 -75.9344 324° Northwest 423 487 38,000  Level Miami Center
Mon 03:43:39 AM 23.9042 -76.0089 324° Northwest 423 487 38,000  Level Miami Center
Mon 03:44:39 AM 23.9986 -76.0878 323° Northwest 423 487 38,000  Level Miami Center
Mon 03:45:41 AM 24.0931 -76.1622 324° Northwest 418 481 38,000  Level Miami Center
Mon 03:46:39 AM 24.1917 -76.2392 325° Northwest 418 481 38,000  Level Miami Center
Mon 03:47:42 AM 24.2819 -76.3139 323° Northwest 418 481 38,000  Level Miami Center
Mon 03:48:42 AM 24.3783 -76.3911 324° Northwest 418 481 38,000  Level Miami Center
Mon 03:49:39 AM 24.4622 -76.4569 324° Northwest 413 475 38,000  Level Miami Center
Mon 03:50:39 AM 24.5564 -76.5344 323° Northwest 413 475 38,000  Level Miami Center
Mon 03:51:39 AM 24.6506 -76.6097 324° Northwest 418 481 38,000  Level Miami Center
Mon 03:52:39 AM 24.7467 -76.6872 324° Northwest 418 481 38,000  Level Miami Center
Mon 03:53:40 AM 24.8408 -76.7628 324° Northwest 418 481 38,000  Level Miami Center
Mon 03:59:07 AM 25.3650 -77.1890 324° Northwest 422 486 38,000  Level FlightAware ADS-B
Mon 03:59:52 AM 25.4250 -77.2410 322° Northwest 422 486 38,000  Level FlightAware ADS-B
Mon 04:00:32 AM 25.4770 -77.2860 322° Northwest 422 486 38,000  Level FlightAware ADS-B
Mon 04:01:22 AM 25.5830 -77.3690 325° Northwest 434 499 38,000  Level FlightAware ADS-B
Mon 04:02:17 AM 25.6650 -77.4370 323° Northwest 429 494 38,000  Level FlightAware ADS-B
Mon 04:03:07 AM 25.7310 -77.4950 322° Northwest 429 494 38,000  Level FlightAware ADS-B
Mon 04:03:47 AM 25.7850 -77.5410 323° Northwest 429 494 38,000  Level FlightAware ADS-B
Mon 04:04:27 AM 25.8380 -77.5870 322° Northwest 429 494 38,000  Level FlightAware ADS-B
Mon 04:05:07 AM 25.8910 -77.6330 322° Northwest 429 494 38,000  Level FlightAware ADS-B
Mon 04:05:52 AM 26.0200 -77.7300 326° Northwest 430 495 38,000  Level FlightAware ADS-B
Mon 04:07:02 AM 26.1270 -77.8190 323° Northwest 430 495 38,000  Level FlightAware ADS-B
Mon 04:07:57 AM 26.2250 -77.9010 323° Northwest 430 495 38,000  Level FlightAware ADS-B
Mon 04:08:42 AM 26.2960 -77.9600 323° Northwest 430 495 38,000  Level FlightAware ADS-B
Mon 04:09:37 AM 26.3900 -78.0390 323° Northwest 438 504 38,000  Level FlightAware ADS-B
Mon 04:10:17 AM 26.4460 -78.0870 322° Northwest 438 504 38,000  Level FlightAware ADS-B
Mon 04:10:57 AM 26.5000 -78.1350 322° Northwest 438 504 38,000  Level FlightAware ADS-B
Mon 04:11:37 AM 26.5550 -78.1820 323° Northwest 438 504 38,000  Level FlightAware ADS-B
Mon 04:12:27 AM 26.6580 -78.2640 325° Northwest 430 495 38,000  Level FlightAware ADS-B
Mon 04:13:07 AM 26.7270 -78.3220 323° Northwest 429 494 38,000  Level FlightAware ADS-B
Mon 04:13:47 AM 26.7920 -78.3770 323° Northwest 435 501 38,000  Level FlightAware ADS-B
Mon 04:14:32 AM 26.8640 -78.4390 322° Northwest 435 501 38,000  Level FlightAware ADS-B
Mon 04:15:12 AM 26.9300 -78.4940 323° Northwest 434 499 38,000  Level FlightAware ADS-B
Mon 04:15:57 AM 27.0000 -78.5540 323° Northwest 434 499 38,000  Level FlightAware ADS-B
Mon 04:16:37 AM 27.0630 -78.6070 323° Northwest 434 499 38,000  Level FlightAware ADS-B
Mon 04:17:17 AM 27.1290 -78.6600 324° Northwest 436 502 38,000  Level FlightAware ADS-B
Mon 04:18:02 AM 27.2060 -78.7170 327° Northwest 436 502 38,000  Level FlightAware ADS-B
Mon 04:18:42 AM 27.2730 -78.7650 328° Northwest 434 499 38,000 -545 Level FlightAware ADS-B
Mon 04:19:52 AM 27.3870 -78.8460 328° Northwest 441 507 37,000 -522 Descending FlightAware ADS-B
Mon 04:20:37 AM 27.4670 -78.9040 327° Northwest 442 509 37,000  Level FlightAware ADS-B
Mon 04:21:17 AM 27.5400 -78.9570 327° Northwest 438 504 37,000  Level FlightAware ADS-B
Mon 04:21:57 AM 27.6030 -79.0020 328° Northwest 429 494 37,000  Level FlightAware ADS-B
Mon 04:22:37 AM 27.6620 -79.0450 327° Northwest 428 493 37,000  Level FlightAware ADS-B
Mon 04:23:22 AM 27.7520 -79.1110 327° Northwest 432 497 37,000  Level FlightAware ADS-B
Mon 04:24:07 AM 27.8280 -79.1660 327° Northwest 431 496 37,000  Level FlightAware ADS-B
Mon 04:24:47 AM 27.8960 -79.2160 327° Northwest 431 496 37,000  Level FlightAware ADS-B
Mon 04:25:42 AM 27.9820 -79.2790 327° Northwest 424 488 37,000  Level FlightAware ADS-B
Mon 04:26:27 AM 28.0560 -79.3330 327° Northwest 422 486 37,000  Level FlightAware ADS-B
Mon 04:27:07 AM 28.1220 -79.3810 327° Northwest 427 491 37,000  Level FlightAware ADS-B
Mon 04:27:47 AM 28.1860 -79.4290 327° Northwest 426 490 37,000  Level FlightAware ADS-B
Mon 04:28:32 AM 28.2620 -79.4850 327° Northwest 424 488 37,000  Level FlightAware ADS-B
Mon 04:29:12 AM 28.3290 -79.5340 327° Northwest 421 484 37,000  Level FlightAware ADS-B
Mon 04:29:57 AM 28.4010 -79.5870 327° Northwest 419 482 37,000  Level FlightAware ADS-B
Mon 04:30:37 AM 28.4670 -79.6360 327° Northwest 409 471 37,000  Level FlightAware ADS-B
Mon 04:31:17 AM 28.5270 -79.6800 327° Northwest 408 470 37,000  Level FlightAware ADS-B
Mon 04:32:02 AM 28.5990 -79.7340 327° Northwest 408 470 37,000  Level FlightAware ADS-B
Mon 04:32:42 AM 28.6610 -79.7800 327° Northwest 408 470 37,000  Level FlightAware ADS-B
Mon 04:33:17 AM 28.7170 -79.8220 327° Northwest 407 468 37,000  Level FlightAware ADS-B
Mon 04:34:07 AM 28.8010 -79.8840 327° Northwest 406 467 37,000  Level FlightAware ADS-B
Mon 04:34:47 AM 28.8680 -79.9340 327° Northwest 406 467 37,000  Level FlightAware ADS-B
Mon 04:35:32 AM 28.9360 -79.9850 327° Northwest 407 468 37,000  Level FlightAware ADS-B
Mon 04:36:07 AM 28.9960 -80.0300 327° Northwest 407 468 37,000  Level FlightAware ADS-B
Mon 04:36:57 AM 29.0750 -80.0900 326° Northwest 408 470 37,000  Level FlightAware ADS-B
Mon 04:37:37 AM 29.1330 -80.1330 327° Northwest 408 470 37,000  Level FlightAware ADS-B
Mon 04:38:27 AM 29.2210 -80.2000 326° Northwest 409 471 37,000  Level FlightAware ADS-B
Mon 04:39:27 AM 29.3160 -80.2720 327° Northwest 409 471 37,000  Level FlightAware ADS-B
Mon 04:40:07 AM 29.3690 -80.3130 326° Northwest 409 471 37,000  Level FlightAware ADS-B
Mon 04:40:47 AM 29.4230 -80.3550 326° Northwest 409 471 37,000  Level FlightAware ADS-B
Mon 04:41:51 AM 29.5461 -80.4578 326° Northwest 416 479 37,000  Level Jacksonville Center
Mon 04:42:51 AM 29.6456 -80.5269 329° Northwest 416 479 37,000  Level Jacksonville Center
Mon 04:43:51 AM 29.7428 -80.5986 327° Northwest 416 479 37,000  Level Jacksonville Center
Mon 04:44:51 AM 29.8381 -80.6731 326° Northwest 416 479 37,000  Level Jacksonville Center
Mon 04:45:51 AM 29.9333 -80.7475 326° Northwest 421 484 37,000  Level Jacksonville Center
Mon 04:46:51 AM 30.0306 -80.8222 326° Northwest 421 484 37,000  Level Jacksonville Center
Mon 04:47:51 AM 30.1278 -80.8944 327° Northwest 421 484 37,000  Level Jacksonville Center
Mon 04:48:51 AM 30.2250 -80.9694 326° Northwest 421 484 37,000  Level Jacksonville Center
Mon 04:49:51 AM 30.3114 -81.0350 327° Northwest 421 484 37,000  Level Jacksonville Center
Mon 04:50:51 AM 30.4106 -81.1103 327° Northwest 421 484 37,000  Level Jacksonville Center
Mon 04:51:51 AM 30.5058 -81.1903 324° Northwest 421 484 37,000  Level Jacksonville Center
Mon 04:52:51 AM 30.6008 -81.2756 322° Northwest 431 496 37,000  Level Jacksonville Center
Mon 04:53:51 AM 30.6958 -81.3561 324° Northwest 431 496 37,000  Level Jacksonville Center
Mon 04:54:51 AM 30.7928 -81.4392 324° Northwest 431 496 37,000  Level Jacksonville Center
Mon 04:55:51 AM 30.8897 -81.5247 323° Northwest 438 504 37,000  Level Jacksonville Center
Mon 04:56:51 AM 30.9867 -81.6106 323° Northwest 443 510 37,000  Level Jacksonville Center
Mon 04:57:51 AM 31.0814 -81.6942 323° Northwest 443 510 37,000  Level Jacksonville Center
Mon 04:58:51 AM 31.1783 -81.7806 323° Northwest 443 510 37,000  Level Jacksonville Center
Mon 04:59:51 AM 31.2750 -81.8644 323° Northwest 443 510 37,000  Level Jacksonville Center
Mon 05:00:51 AM 31.3656 -81.9436 323° Northwest 436 502 37,000  Level Jacksonville Center
Mon 05:03:18 AM 31.6175 -82.1661 323° Northwest 438 504 37,000  Level Atlanta Center
Mon 05:04:18 AM 31.7106 -82.2519 322° Northwest 438 504 37,000  Level Atlanta Center
Mon 05:09:57 AM 32.2140 -82.7410 322° Northwest 428 493 37,000  Level FlightAware ADS-B
Mon 05:10:37 AM 32.2650 -82.7940 319° Northwest 428 493 37,000  Level FlightAware ADS-B
Mon 05:11:27 AM 32.3280 -82.8590 319° Northwest 428 493 37,000  Level FlightAware ADS-B
Mon 05:12:07 AM 32.3790 -82.9110 319° Northwest 428 493 37,000  Level FlightAware ADS-B
Mon 05:12:47 AM 32.4300 -82.9640 319° Northwest 428 493 37,000  Level FlightAware ADS-B
Mon 05:13:27 AM 32.4810 -83.0160 319° Northwest 428 493 37,000 -2,588 Level FlightAware ADS-B
Mon 05:16:12 AM 32.7880 -83.3480 318° Northwest 27,300 -3,070 Descending FlightAware ADS-B
Mon 05:17:02 AM 32.8650 -83.4320 318° Northwest 465 535 26,000 -867 Descending FlightAware ADS-B
Mon 05:17:42 AM 32.9190 -83.4910 317° Northwest 465 535 26,000 -3,953 Level FlightAware ADS-B
Mon 05:18:27 AM 33.0090 -83.5840 319° Northwest 436 502 20,400 -5,224 Descending FlightAware ADS-B
Mon 05:19:07 AM 33.0650 -83.6440 318° Northwest 436 502 18,600 -2,682 Descending FlightAware ADS-B
Mon 05:19:52 AM 33.1310 -83.7140 318° Northwest 418 481 16,600 -2,640 Descending FlightAware ADS-B
Mon 05:20:47 AM 33.2100 -83.8020 317° Northwest 403 464 14,200 -1,642 Descending FlightAware ADS-B
Mon 05:21:27 AM 33.2550 -83.8640 311° West 391 450 14,000 -150 Descending FlightAware ADS-B
Mon 05:22:07 AM 33.2950 -83.9210 310° West 391 450 14,000  Level FlightAware ADS-B
Mon 05:22:57 AM 33.3440 -83.9910 310° West 391 450 14,000 -563 Level FlightAware ADS-B
Mon 05:25:42 AM 33.5170 -84.2640 307° West 11,900 -708 Descending FlightAware ADS-B
Mon 05:26:12 AM 33.5410 -84.3100 302° West 275 316 11,700 -1,292 Descending FlightAware ADS-B
Mon 05:26:47 AM 33.5450 -84.3600 275° West 260 299 10,500 -2,229 Descending FlightAware ADS-B
Mon 05:27:22 AM 33.5450 -84.4130 270° West 259 298 9,100 -1,920 Descending FlightAware ADS-B
Mon 05:28:02 AM 33.5450 -84.4680 270° West 259 298 8,100 -1,385 Descending FlightAware ADS-B
Mon 05:28:27 AM 33.5450 -84.5020 270° West 258 297 7,600 -1,527 Descending FlightAware ADS-B
Mon 05:28:57 AM 33.5450 -84.5410 270° West 255 293 6,700 -982 Descending FlightAware ADS-B
Mon 05:29:22 AM 33.5450 -84.5760 270° West 255 293 6,700 -857 Level FlightAware ADS-B
Mon 05:33:17 AM 33.6320 -84.5700 North 2,900 -941 Descending FlightAware ADS-B
Mon 05:33:37 AM 33.6320 -84.5550 90° East 205 236 2,700 -900 Descending FlightAware ADS-B
Mon 05:33:57 AM 33.6320 -84.5290 90° East 194 223 2,300 -982 Descending FlightAware ADS-B
Mon 05:34:32 AM 33.6320 -84.4950 90° East 163 188 1,800 -831 Descending FlightAware ADS-B
Mon 05:35:02 AM 33.6320 -84.4710 90° East 133 153 1,400 -494 Descending FlightAware ADS-B
Mon 05:35:57 AM 33.6320 -84.4350 90° East 132 152 1,100 -327 Descending FlightAware ADS-B

Login

Don't have an account? Register now (free) for customized features, flight alerts, and more!